Sao Sebastiao do Cai, Brazil
Current Conditions -  °F | °C
As of 6:00 AM on Saturday 29 Nov 2014 (Local Time) from SBCO Reporting Station
Clear Clear  
Wind Chill: 64°   Ceiling: Unl
Heat Index: 64°   Visibility: 6mi
Dew Point: 64°   Wind: 6mph
Humidity: 100%   Direction: 130°SE
Pressure: 29.94"   Gusts: NA
Location:  29.65°S, 51.17°W
Report Text: SBCO 290800Z 13005KT CAVOK 18/18 Q1014
Loading
Personal Weather Stations






























Interactive Weather Map New forecast layout! Learn more

10-Day Weather Forecast

Advertisements
Track Severe Weather on mobile